메인 페이지
METAR-TAF:

METAR-TAF

공항 :

프레즈노, 캘리포니아, 미국

위도: 36-46-48N, 경도: 119-43-10W, 고도: 101m

현재 날씨관측

예보는 7분 전, 16:53시(UTC)에 발표되었습니다.
서북서3kt
온도 28°C
습도 42%
기압 1017 hPa
시정: 12.9km
맑음

METAR: KFAT 171653Z 30003KT 8SM CLR 28/14 A3003 RMK AO2 SLP165 MTNS OBSC FU HZ DSNT N-E-S T02830139

시각: 10:00 (17:00 UTC)

예보

예보는 5 시간 40분 전, 11:20시(UTC)에 발표되었습니다.
예보 대상 시간: 17일 12시부터 18일 12시까지 (UTC)
서북서8kt
시정: 10km
맑음

TAF: KFAT 171120Z 1712/1812 30008KT P6SM SKC

4,000개 이상의 공항 관측 자료 및 예보 (METAR 및 TAF 보고).

지도상에서 검색 가능한 기상관측소가 노란 점과 빨간 점으로 표시되어 있습니다.

기상관측소 명을 보려면 표시 위로 마우스를 이동하세요.

날씨 관측과 예보를 보려면 클릭하세요.

지도 변경 : 확대하려면 엑스 표시가 있는 녹색 버튼, 축소하려면 빼기 표시가 있는 녹색 버튼, 다음 페이지의 지도를 보려면 녹색 화살표를 클릭하세요.


METAR-TAF: